ADDS METAR Data INFO
IDs: Format: Raw Decoded Include TAF

Data at: 2338 UTC 15 Dec 2017

KMVE 152335Z AUTO 18003KT 10SM BKN047 BKN060 OVC070 01/M02 A2968 RMK AO2
KMVE 152315Z AUTO 18003KT 10SM SCT055 BKN070 OVC100 01/M02 A2969 RMK AO2
KMVE 152255Z AUTO 00000KT 10SM BKN070 OVC080 02/M02 A2969 RMK AO2
KMVE 152235Z AUTO 00000KT 10SM OVC070 02/M02 A2969 RMK AO2
KMVE 152215Z AUTO 22003KT 10SM OVC070 02/M02 A2969 RMK AO2
KMVE 152155Z AUTO 00000KT 10SM OVC070 03/M02 A2971 RMK AO2
KMVE 152135Z AUTO 00000KT 10SM OVC070 03/M02 A2972 RMK AO2
KMVE 152115Z AUTO 00000KT 10SM SCT060 BKN080 03/M01 A2971 RMK AO2
KMVE 152055Z AUTO 26005KT 10SM SCT070 BKN080 04/00 A2972 RMK AO2
KMVE 152035Z AUTO 00000KT 10SM SCT024 BKN080 BKN110 03/00 A2972 RMK AO2
KMVE 152015Z AUTO 17003KT 10SM SCT023 SCT100 02/M01 A2974 RMK AO2
KMVE 151955Z AUTO 00000KT 10SM SCT012 SCT024 SCT100 02/M01 A2974 RMK AO2
KMVE 151935Z AUTO 20003KT 10SM BKN012 01/M01 A2975 RMK AO2
KMVE 151915Z AUTO 22003KT 10SM SCT012 02/M01 A2976 RMK AO2
KMVE 151855Z AUTO 00000KT 10SM SCT010 01/M02 A2978 RMK AO2
KMVE 151835Z AUTO 00000KT 10SM SCT008 02/M01 A2979 RMK AO2
KMVE 151815Z AUTO 00000KT 10SM SCT037 01/M02 A2981 RMK AO2
KMVE 151755Z AUTO 18004KT 10SM BKN039 M01/M02 A2981 RMK AO2
KMVE 151735Z AUTO 18005KT 10SM SCT030 OVC041 M01/M03 A2983 RMK AO2
KMVE 151715Z AUTO 17005KT 10SM SCT032 OVC043 M02/M03 A2985 RMK AO2
KMVE 151655Z AUTO 15005KT 10SM BKN032 OVC043 M02/M03 A2986 RMK AO2
KMVE 151635Z AUTO 16005KT 10SM SCT014 BKN032 OVC043 M02/M04 A2987 RMK AO2
KMVE 151615Z AUTO 15004KT 10SM BKN029 BKN100 M02/M03 A2986 RMK AO2
KMVE 151555Z AUTO 15003KT 7SM SCT005 SCT008 OVC100 M03/M03 A2986 RMK AO2
KMVE 151535Z AUTO 13004KT 3SM -SN SCT005 BKN008 OVC100 M03/M03 A2987 RMK AO2
KMVE 151515Z AUTO 11004KT 4SM -SN SCT021 BKN046 OVC100 M03/M04 A2987 RMK AO2
KMVE 151455Z AUTO 10003KT 2SM -SN SCT007 BKN022 OVC055 M03/M04 A2988 RMK AO2
KMVE 151435Z AUTO 00000KT 2 1/2SM -SN BKN007 OVC028 M03/M04 A2988 RMK AO2
KMVE 151415Z AUTO 07003KT 5SM -SN OVC005 M03/M04 A2988 RMK AO2
KMVE 151355Z AUTO 08003KT 7SM OVC005 M02/M03 A2988 RMK AO2
KMVE 151335Z AUTO 05007KT 10SM OVC005 M02/M03 A2988 RMK AO2
KMVE 151315Z AUTO 03005KT 10SM OVC009 M01/M02 A2988 RMK AO2
KMVE 151255Z AUTO 00000KT 10SM SCT009 BKN021 OVC049 M01/M02 A2988 RMK AO2
KMVE 151235Z AUTO 00000KT 10SM SCT016 BKN021 OVC049 M01/M02 A2988 RMK AO2
KMVE 151215Z AUTO 34004KT 10SM OVC015 M01/M02 A2989 RMK AO2
KMVE 151155Z AUTO 33003KT 10SM OVC017 M01/M02 A2989 RMK AO2
KMVE 151135Z AUTO 34005KT 10SM BKN019 OVC049 M01/M02 A2989 RMK AO2
KMVE 151115Z AUTO 33003KT 10SM OVC019 M01/M02 A2989 RMK AO2
KMVE 151055Z AUTO 34003KT 10SM OVC019 M01/M02 A2990 RMK AO2
KMVE 151035Z AUTO 00000KT 10SM OVC019 M01/M03 A2990 RMK AO2
KMVE 151015Z AUTO 00000KT 10SM BKN019 OVC049 M02/M03 A2991 RMK AO2
KMVE 150955Z AUTO 00000KT 10SM OVC049 M02/M03 A2991 RMK AO2
KMVE 150935Z AUTO 00000KT 10SM BKN024 OVC049 M02/M03 A2992 RMK AO2
KMVE 150915Z AUTO 30003KT 10SM OVC024 M02/M03 A2992 RMK AO2
KMVE 150855Z AUTO 00000KT 10SM OVC026 M02/M03 A2993 RMK AO2
KMVE 150835Z AUTO 00000KT 10SM OVC028 M02/M03 A2993 RMK AO2
KMVE 150815Z AUTO 00000KT 10SM BKN022 OVC030 M02/M03 A2993 RMK AO2
KMVE 150755Z AUTO 29006KT 4SM -SN SCT022 BKN032 OVC039 M02/M03 A2994 RMK AO2
KMVE 150735Z AUTO 29005KT 4SM -SN SCT011 BKN022 OVC038 M02/M04 A2994 RMK AO2
KMVE 150715Z AUTO 28004KT 4SM -SN SCT014 BKN025 OVC038 M02/M04 A2995 RMK AO2
KMVE 150655Z AUTO 29004KT 10SM -SN SCT031 BKN043 OVC070 M02/M04 A2996 RMK AO2
KMVE 150635Z AUTO 29006KT 10SM SCT036 BKN060 OVC070 M02/M04 A2997 RMK AO2
KMVE 150615Z AUTO 29004KT 10SM -SN SCT038 BKN044 OVC060 M02/M04 A2998 RMK AO2
KMVE 150555Z AUTO 28004KT 10SM BKN042 OVC060 M02/M05 A2999 RMK AO2
KMVE 150535Z AUTO 28004KT 10SM SCT044 OVC060 M03/M05 A3000 RMK AO2
KMVE 150515Z AUTO 28003KT 10SM SCT047 OVC060 M03/M05 A3000 RMK AO2
KMVE 150455Z AUTO 28004KT 10SM BKN047 OVC050 M03/M05 A3000 RMK AO2
KMVE 150435Z AUTO 00000KT 10SM OVC045 M03/M06 A3001 RMK AO2
KMVE 150415Z AUTO 28003KT 10SM OVC045 M03/M06 A3002 RMK AO2
KMVE 150355Z AUTO 29004KT 10SM OVC045 M03/M06 A3003 RMK AO2
KMVE 150335Z AUTO 00000KT 10SM OVC042 M03/M06 A3004 RMK AO2
KMVE 150315Z AUTO 31004KT 10SM OVC044 M03/M06 A3004 RMK AO2
KMVE 150255Z AUTO 31004KT 10SM OVC046 M03/M06 A3005 RMK AO2
KMVE 150235Z AUTO 33004KT 10SM BKN031 OVC048 M03/M06 A3005 RMK AO2
KMVE 150215Z AUTO 33004KT 10SM -SN BKN031 OVC037 M03/M06 A3006 RMK AO2
KMVE 150155Z AUTO 33004KT 10SM BKN031 BKN038 OVC055 M03/M06 A3006 RMK AO2
KMVE 150135Z AUTO 34005KT 10SM BKN031 OVC055 M03/M06 A3006 RMK AO2
KMVE 150115Z AUTO 35007KT 10SM SCT020 BKN027 OVC055 M03/M06 A3007 RMK AO2
KMVE 150055Z AUTO 35008KT 10SM BKN019 OVC029 M03/M06 A3008 RMK AO2
KMVE 150035Z AUTO 34007KT 10SM BKN018 OVC026 M03/M06 A3008 RMK AO2
KMVE 150015Z AUTO 34007KT 10SM SCT018 OVC026 M03/M06 A3008 RMK AO2
KMVE 142355Z AUTO 33007KT 10SM OVC024 M04/M07 A3008 RMK AO2
KMVE 142335Z AUTO 34006KT 10SM OVC022 M04/M07 A3008 RMK AO2
KMVE 142315Z AUTO 01010KT 10SM OVC020 M04/M07 A3008 RMK AO2
KMVE 142255Z AUTO 35012G15KT 10SM OVC018 M03/M06 A3008 RMK AO2
KMVE 142235Z AUTO 36010KT 10SM BKN018 OVC022 M03/M06 A3008 RMK AO2
KMVE 142215Z AUTO 35008KT 10SM OVC016 M03/M06 A3007 RMK AO2
KMVE 142155Z AUTO 36008KT 10SM OVC016 M03/M06 A3007 RMK AO2
KMVE 142135Z AUTO 34008KT 10SM OVC016 M03/M06 A3006 RMK AO2
KMVE 142115Z AUTO 35007KT 10SM -SN BKN016 OVC029 M03/M06 A3006 RMK AO2
KMVE 142055Z AUTO 36008KT 10SM OVC018 M03/M06 A3006 RMK AO2
KMVE 142035Z AUTO 35008KT 10SM OVC020 M03/M06 A3005 RMK AO2
KMVE 142015Z AUTO 36007KT 10SM OVC022 M03/M07 A3005 RMK AO2
KMVE 141955Z AUTO 02008KT 10SM OVC024 M03/M07 A3005 RMK AO2
KMVE 141935Z AUTO 01007KT 10SM OVC026 M03/M06 A3005 RMK AO2
KMVE 141915Z AUTO 01007KT 10SM OVC026 M03/M06 A3004 RMK AO2
KMVE 141855Z AUTO 36005KT 10SM OVC030 M03/M06 A3004 RMK AO2
KMVE 141835Z AUTO 01008KT 10SM OVC034 M03/M06 A3005 RMK AO2
KMVE 141815Z AUTO 02008KT 10SM OVC041 M03/M06 A3005 RMK AO2
KMVE 141755Z AUTO 35007KT 10SM SCT013 SCT043 BKN085 M04/M06 A3006 RMK AO2
KMVE 141735Z AUTO 35009KT 10SM SCT013 BKN085 M04/M06 A3005 RMK AO2
KMVE 141715Z AUTO 35007KT 10SM BKN013 BKN085 M04/M06 A3006 RMK AO2
KMVE 141656Z AUTO 36008KT 10SM BKN013 OVC085 M04/M06 A3006 RMK AO2
KMVE 141635Z AUTO 01005KT 10SM OVC009 M04/M07 A3006 RMK AO2
KMVE 141615Z AUTO 35005KT 10SM OVC009 M05/M07 A3005 RMK AO2
KMVE 141555Z AUTO 35005KT 10SM OVC009 M05/M07 A3005 RMK AO2
KMVE 141535Z AUTO 36003KT 10SM OVC007 M06/M07 A3004 RMK AO2
KMVE 141515Z AUTO 01004KT 10SM OVC007 M06/M08 A3005 RMK AO2
KMVE 141455Z AUTO 36005KT 10SM OVC007 M06/M08 A3004 RMK AO2
KMVE 141435Z AUTO 36004KT 10SM OVC007 M06/M08 A3003 RMK AO2
KMVE 141415Z AUTO 34004KT 10SM OVC007 M06/M08 A3002 RMK AO2
KMVE 141355Z AUTO 36003KT 10SM OVC009 M06/M08 A3003 RMK AO2
KMVE 141335Z AUTO 36003KT 10SM OVC009 M06/M08 A3002 RMK AO2
KMVE 141315Z AUTO 35006KT 10SM OVC009 M06/M08 A3002 RMK AO2
KMVE 141255Z AUTO 36004KT 10SM OVC009 M06/M08 A3002 RMK AO2
KMVE 141235Z AUTO 01004KT 10SM OVC011 M07/M09 A3002 RMK AO2
KMVE 141215Z AUTO 34003KT 10SM OVC011 M07/M09 A3002 RMK AO2
KMVE 141155Z AUTO 36004KT 10SM OVC011 M07/M09 A3001 RMK AO2